Time;durP1;ratioP1;P1;durP2;ratioP2;P2;SDS_P1;SDS_P2;PMS_P1;PMS_P2;Temp;Humidity;BMP_temperature;BMP_pressure;BME280_temperature;BME280_humidity;BME280_pressure;Samples;Min_cycle;Max_cycle;Signal;HPM_P1;HPM_P2
2023/05/29 00:00:52;;;;;;;16.63;4.37;;;;;;;;;;5032819;28;20211;-82
2023/05/29 00:03:18;;;;;;;16.00;4.43;;;;;;;;;;5033998;28;20180;-82
2023/05/29 00:05:44;;;;;;;15.10;4.20;;;;;;;;;;5024668;28;20199;-82
2023/05/29 00:08:10;;;;;;;14.30;3.90;;;;;;;;;;5032665;28;20173;-82
2023/05/29 00:10:37;;;;;;;16.43;4.53;;;;;;;;;;5015937;28;20238;-82
2023/05/29 00:13:03;;;;;;;15.13;4.00;;;;;;;;;;5032645;28;20177;-84
2023/05/29 00:15:30;;;;;;;17.27;4.27;;;;;;;;;;5033295;28;20263;-84
2023/05/29 00:17:56;;;;;;;17.13;4.63;;;;;;;;;;5022954;28;20215;-84
2023/05/29 00:20:22;;;;;;;18.40;4.40;;;;;;;;;;5022859;28;20180;-84
2023/05/29 00:22:48;;;;;;;18.70;4.90;;;;;;;;;;5034168;28;20180;-84
2023/05/29 00:25:15;;;;;;;17.33;4.87;;;;;;;;;;5033150;28;20172;-84
2023/05/29 00:27:42;;;;;;;14.50;4.03;;;;;;;;;;5032829;28;20191;-84
2023/05/29 00:30:08;;;;;;;20.87;4.53;;;;;;;;;;5032090;28;20208;-80
2023/05/29 00:32:34;;;;;;;14.87;4.20;;;;;;;;;;5015905;28;20298;-80
2023/05/29 00:35:00;;;;;;;22.20;4.40;;;;;;;;;;5016501;28;20189;-79
2023/05/29 00:37:26;;;;;;;20.23;4.87;;;;;;;;;;5015845;28;20183;-79
2023/05/29 00:39:52;;;;;;;19.80;4.60;;;;;;;;;;5031994;28;20263;-79
2023/05/29 00:42:18;;;;;;;16.53;4.50;;;;;;;;;;5015667;28;20208;-80
2023/05/29 00:44:44;;;;;;;13.67;4.23;;;;;;;;;;5032038;28;20227;-81
2023/05/29 00:47:10;;;;;;;13.90;3.77;;;;;;;;;;5016157;28;20246;-82
2023/05/29 00:49:37;;;;;;;21.77;4.77;;;;;;;;;;5032639;28;20212;-82
2023/05/29 00:52:03;;;;;;;18.67;3.97;;;;;;;;;;5039011;28;20191;-82
2023/05/29 00:54:30;;;;;;;16.00;3.80;;;;;;;;;;5035942;28;20275;-82
2023/05/29 00:56:57;;;;;;;18.00;4.30;;;;;;;;;;5035692;28;20230;-82
2023/05/29 00:59:23;;;;;;;18.23;3.90;;;;;;;;;;5015645;28;20237;-82
2023/05/29 01:01:53;;;;;;;15.47;4.07;;;;;;;;;;5016554;28;20193;-82
2023/05/29 01:04:21;;;;;;;16.90;4.33;;;;;;;;;;5011949;28;20200;-82
2023/05/29 01:06:47;;;;;;;16.67;4.23;;;;;;;;;;5037728;28;20187;-82
2023/05/29 01:09:13;;;;;;;15.03;4.37;;;;;;;;;;5035382;28;20212;-82
2023/05/29 01:11:46;;;;;;;16.13;4.40;;;;;;;;;;5021765;28;20323;-81
2023/05/29 01:14:17;;;;;;;16.80;3.90;;;;;;;;;;5038731;28;20183;-82
2023/05/29 01:16:56;;;;;;;16.63;4.67;;;;;;;;;;5034284;28;20242;-82
2023/05/29 01:19:40;;;;;;;20.17;4.40;;;;;;;;;;5045472;28;20185;-82
2023/05/29 01:22:09;;;;;;;19.07;4.40;;;;;;;;;;5036735;28;20180;-82
2023/05/29 01:24:45;;;;;;;14.00;3.87;;;;;;;;;;5036767;28;20306;-82
2023/05/29 01:27:12;;;;;;;18.07;4.00;;;;;;;;;;5052717;28;20187;-82
2023/05/29 01:29:39;;;;;;;14.67;4.23;;;;;;;;;;5055646;28;20207;-82
2023/05/29 01:32:05;;;;;;;17.50;3.90;;;;;;;;;;5055544;28;20179;-82
2023/05/29 01:34:32;;;;;;;22.77;4.77;;;;;;;;;;5038703;28;20183;-81
2023/05/29 01:36:58;;;;;;;19.83;4.33;;;;;;;;;;5037765;28;20184;-79
2023/05/29 01:39:25;;;;;;;20.43;3.83;;;;;;;;;;5035273;28;20180;-79
2023/05/29 01:41:52;;;;;;;16.10;4.10;;;;;;;;;;5018916;28;20185;-79
2023/05/29 01:44:18;;;;;;;18.43;3.93;;;;;;;;;;5052214;28;20191;-79
2023/05/29 01:46:45;;;;;;;14.57;4.10;;;;;;;;;;5055177;28;20175;-79
2023/05/29 01:49:12;;;;;;;20.00;4.23;;;;;;;;;;5055127;28;20204;-79
2023/05/29 01:51:39;;;;;;;13.67;4.17;;;;;;;;;;5055204;28;20180;-84
2023/05/29 01:54:05;;;;;;;17.40;4.50;;;;;;;;;;5056267;28;20164;-84
2023/05/29 01:56:31;;;;;;;19.03;4.77;;;;;;;;;;5054948;28;20210;-84
2023/05/29 01:58:58;;;;;;;19.20;4.07;;;;;;;;;;5054748;28;20171;-84
2023/05/29 02:01:24;;;;;;;21.33;4.37;;;;;;;;;;5037440;28;20223;-84
2023/05/29 02:03:51;;;;;;;20.50;4.30;;;;;;;;;;5047328;28;20180;-84
2023/05/29 02:06:17;;;;;;;16.17;4.10;;;;;;;;;;5034909;28;20177;-84
2023/05/29 02:08:43;;;;;;;18.53;4.10;;;;;;;;;;5034510;28;20218;-81
2023/05/29 02:11:09;;;;;;;17.57;4.10;;;;;;;;;;5018589;28;20177;-81
2023/05/29 02:13:35;;;;;;;20.83;4.47;;;;;;;;;;5008062;28;20247;-82
2023/05/29 02:16:01;;;;;;;14.20;4.13;;;;;;;;;;4998574;28;20189;-82
2023/05/29 02:18:27;;;;;;;19.30;4.50;;;;;;;;;;5017982;28;20187;-81
2023/05/29 02:20:53;;;;;;;17.77;4.23;;;;;;;;;;5030863;28;20185;-81
2023/05/29 02:23:19;;;;;;;21.13;4.70;;;;;;;;;;5026357;28;20180;-81
2023/05/29 02:25:46;;;;;;;21.93;4.60;;;;;;;;;;5017664;28;20215;-84
2023/05/29 02:28:12;;;;;;;17.53;4.47;;;;;;;;;;5017901;28;20280;-83
2023/05/29 02:30:38;;;;;;;20.70;4.87;;;;;;;;;;5032202;28;20302;-84
2023/05/29 02:33:04;;;;;;;20.83;4.80;;;;;;;;;;5041360;28;20180;-84
2023/05/29 02:35:30;;;;;;;17.07;4.80;;;;;;;;;;5034948;28;20216;-83
2023/05/29 02:37:56;;;;;;;22.07;4.43;;;;;;;;;;5017930;28;20234;-83
2023/05/29 02:40:22;;;;;;;15.53;4.13;;;;;;;;;;5017927;28;20192;-83
2023/05/29 02:42:50;;;;;;;17.97;4.27;;;;;;;;;;5018110;28;20267;-79
2023/05/29 02:45:16;;;;;;;17.33;4.20;;;;;;;;;;5033993;28;20200;-79
2023/05/29 02:47:42;;;;;;;17.57;4.20;;;;;;;;;;5017531;28;20185;-79
2023/05/29 02:50:09;;;;;;;16.33;4.30;;;;;;;;;;5017571;28;20208;-79
2023/05/29 02:52:36;;;;;;;17.53;4.60;;;;;;;;;;5053169;28;20187;-79
2023/05/29 02:55:03;;;;;;;16.90;4.60;;;;;;;;;;5021695;28;20189;-80
2023/05/29 02:57:29;;;;;;;17.90;4.40;;;;;;;;;;5016415;28;20262;-80
2023/05/29 02:59:55;;;;;;;15.90;4.37;;;;;;;;;;5018760;28;20223;-89
2023/05/29 03:02:21;;;;;;;17.40;4.13;;;;;;;;;;5019772;28;20191;-90
2023/05/29 03:04:50;;;;;;;19.77;4.20;;;;;;;;;;5019102;28;20196;-88
2023/05/29 03:07:16;;;;;;;17.03;4.33;;;;;;;;;;5034564;28;20184;-88
2023/05/29 03:09:42;;;;;;;17.87;4.07;;;;;;;;;;5017460;28;20298;-90
2023/05/29 03:12:08;;;;;;;19.87;4.83;;;;;;;;;;5017339;28;20208;-88
2023/05/29 03:14:35;;;;;;;16.50;4.50;;;;;;;;;;5017351;28;20199;-88
2023/05/29 03:17:06;;;;;;;17.67;4.27;;;;;;;;;;5017505;28;20183;-84
2023/05/29 03:19:32;;;;;;;16.30;4.23;;;;;;;;;;5034841;28;20180;-84
2023/05/29 03:21:59;;;;;;;17.57;4.50;;;;;;;;;;5017002;28;20181;-84
2023/05/29 03:24:25;;;;;;;20.43;4.60;;;;;;;;;;5033522;28;20216;-84
2023/05/29 03:26:51;;;;;;;18.37;4.10;;;;;;;;;;5033656;28;20240;-84
2023/05/29 03:29:18;;;;;;;19.00;4.30;;;;;;;;;;5030092;28;20304;-84
2023/05/29 03:31:44;;;;;;;20.23;4.67;;;;;;;;;;5013483;28;20173;-88
2023/05/29 03:34:10;;;;;;;19.27;4.77;;;;;;;;;;5025284;28;20184;-91
2023/05/29 03:36:36;;;;;;;17.27;4.40;;;;;;;;;;5016908;28;20234;-88
2023/05/29 03:39:03;;;;;;;18.00;4.50;;;;;;;;;;5016847;28;20275;-89
2023/05/29 03:41:29;;;;;;;21.20;4.70;;;;;;;;;;5016541;28;20223;-90
2023/05/29 03:43:55;;;;;;;19.20;4.27;;;;;;;;;;5039133;28;20188;-88
2023/05/29 03:46:21;;;;;;;17.87;4.10;;;;;;;;;;5033493;28;20202;-90
2023/05/29 03:48:47;;;;;;;18.23;3.93;;;;;;;;;;5013250;28;20209;-84
2023/05/29 03:51:13;;;;;;;14.57;4.30;;;;;;;;;;5026916;28;20184;-84
2023/05/29 03:53:39;;;;;;;17.60;4.07;;;;;;;;;;5035707;28;20231;-84
2023/05/29 03:56:05;;;;;;;19.87;4.30;;;;;;;;;;5033861;28;20180;-85
2023/05/29 03:58:31;;;;;;;21.00;4.57;;;;;;;;;;5034606;28;20220;-84
2023/05/29 04:00:57;;;;;;;14.53;3.97;;;;;;;;;;5016711;28;20264;-84
2023/05/29 04:03:23;;;;;;;19.27;4.40;;;;;;;;;;5033264;28;20177;-84
2023/05/29 04:05:49;;;;;;;20.33;4.70;;;;;;;;;;5016591;28;20211;-84
2023/05/29 04:08:15;;;;;;;15.87;3.97;;;;;;;;;;5016506;28;20279;-84
2023/05/29 04:10:41;;;;;;;24.27;4.57;;;;;;;;;;5016247;28;20211;-85
2023/05/29 04:13:07;;;;;;;20.83;4.77;;;;;;;;;;5016439;28;20190;-84
2023/05/29 04:15:34;;;;;;;22.60;4.43;;;;;;;;;;5018866;28;20188;-84
2023/05/29 04:18:00;;;;;;;17.80;4.57;;;;;;;;;;5036219;28;20192;-84
2023/05/29 04:20:26;;;;;;;17.57;3.77;;;;;;;;;;5036189;28;20184;-85
2023/05/29 04:22:52;;;;;;;19.60;4.40;;;;;;;;;;5036086;28;20198;-85
2023/05/29 04:25:18;;;;;;;19.83;4.40;;;;;;;;;;5036280;28;20192;-85
2023/05/29 04:27:48;;;;;;;20.20;4.57;;;;;;;;;;5052715;28;20183;-85
2023/05/29 04:30:15;;;;;;;21.53;4.60;;;;;;;;;;5052475;28;20234;-84
2023/05/29 04:32:41;;;;;;;16.57;4.10;;;;;;;;;;5054041;28;20194;-84
2023/05/29 04:35:07;;;;;;;18.57;4.63;;;;;;;;;;5039987;28;20176;-84
2023/05/29 04:37:38;;;;;;;16.00;4.03;;;;;;;;;;5056440;28;20180;-85
2023/05/29 04:40:09;;;;;;;16.07;4.00;;;;;;;;;;5040524;28;20183;-80
2023/05/29 04:42:35;;;;;;;16.23;4.03;;;;;;;;;;5039686;28;20188;-80
2023/05/29 04:45:01;;;;;;;18.50;4.60;;;;;;;;;;5056422;28;20210;-80
2023/05/29 04:47:27;;;;;;;17.93;4.33;;;;;;;;;;5030857;28;20177;-80
2023/05/29 04:49:54;;;;;;;14.97;4.10;;;;;;;;;;5020383;28;20227;-80
2023/05/29 04:52:21;;;;;;;15.93;4.33;;;;;;;;;;5018658;28;20191;-80
2023/05/29 04:54:47;;;;;;;19.00;3.80;;;;;;;;;;5011777;28;20278;-84
2023/05/29 04:57:13;;;;;;;21.47;4.43;;;;;;;;;;5036455;28;20199;-84
2023/05/29 04:59:39;;;;;;;17.60;4.60;;;;;;;;;;5019490;28;20228;-85
2023/05/29 05:02:05;;;;;;;22.90;4.80;;;;;;;;;;5016200;28;20247;-84
2023/05/29 05:04:32;;;;;;;20.87;4.77;;;;;;;;;;5019316;28;20267;-85
2023/05/29 05:06:58;;;;;;;18.30;4.33;;;;;;;;;;5035941;28;20185;-84
2023/05/29 05:09:24;;;;;;;18.00;3.80;;;;;;;;;;5019806;28;20216;-84
2023/05/29 05:11:50;;;;;;;15.77;4.13;;;;;;;;;;5020216;28;20219;-83
2023/05/29 05:14:16;;;;;;;17.97;4.23;;;;;;;;;;5036088;28;20183;-83
2023/05/29 05:16:42;;;;;;;15.90;4.37;;;;;;;;;;5019747;28;20184;-83
2023/05/29 05:19:08;;;;;;;19.17;4.47;;;;;;;;;;5019826;28;20181;-83
2023/05/29 05:21:35;;;;;;;18.80;4.60;;;;;;;;;;5037202;28;20176;-82
2023/05/29 05:24:01;;;;;;;17.23;4.20;;;;;;;;;;5036059;28;20185;-83
2023/05/29 05:26:27;;;;;;;18.20;4.30;;;;;;;;;;5036613;28;20176;-83
2023/05/29 05:28:53;;;;;;;15.37;4.17;;;;;;;;;;5019746;28;20223;-80
2023/05/29 05:31:19;;;;;;;13.63;4.03;;;;;;;;;;5018785;28;20188;-80
2023/05/29 05:33:45;;;;;;;16.60;3.80;;;;;;;;;;5035914;28;20177;-80
2023/05/29 05:36:12;;;;;;;16.07;3.83;;;;;;;;;;5019173;28;20176;-80
2023/05/29 05:38:38;;;;;;;19.90;4.53;;;;;;;;;;5036438;28;20245;-80
2023/05/29 05:41:04;;;;;;;16.47;3.90;;;;;;;;;;5042113;28;20245;-80
2023/05/29 05:43:30;;;;;;;14.57;3.80;;;;;;;;;;5054463;28;20176;-80
2023/05/29 05:45:56;;;;;;;16.77;4.20;;;;;;;;;;5048588;28;20188;-89
2023/05/29 05:48:22;;;;;;;15.23;3.77;;;;;;;;;;5035710;28;20178;-88
2023/05/29 05:50:48;;;;;;;16.97;3.67;;;;;;;;;;5036654;28;20209;-89
2023/05/29 05:53:14;;;;;;;14.20;3.77;;;;;;;;;;5018992;28;20211;-88
2023/05/29 05:55:40;;;;;;;13.50;3.77;;;;;;;;;;5019142;28;20212;-89
2023/05/29 05:58:06;;;;;;;16.60;4.00;;;;;;;;;;5014712;28;20188;-89
2023/05/29 06:00:32;;;;;;;16.10;3.93;;;;;;;;;;5012240;28;20319;-89
2023/05/29 06:02:59;;;;;;;16.80;4.20;;;;;;;;;;5036457;28;20207;-80
2023/05/29 06:05:25;;;;;;;18.50;4.00;;;;;;;;;;5031975;28;20189;-80
2023/05/29 06:07:51;;;;;;;14.13;3.83;;;;;;;;;;5022570;28;20262;-80
2023/05/29 06:10:18;;;;;;;21.63;3.80;;;;;;;;;;5018735;28;20208;-79
2023/05/29 06:12:47;;;;;;;19.40;3.83;;;;;;;;;;5018806;28;20187;-80
2023/05/29 06:15:14;;;;;;;18.10;3.90;;;;;;;;;;5035322;28;20172;-79
2023/05/29 06:17:40;;;;;;;20.33;3.90;;;;;;;;;;5035468;28;20267;-79
2023/05/29 06:20:10;;;;;;;15.63;3.50;;;;;;;;;;5018582;28;20212;-85
2023/05/29 06:22:36;;;;;;;20.03;3.80;;;;;;;;;;5034680;28;20185;-84
2023/05/29 06:25:02;;;;;;;15.63;3.30;;;;;;;;;;5018609;28;20199;-85
2023/05/29 06:27:28;;;;;;;15.30;3.70;;;;;;;;;;5034758;28;20201;-84
2023/05/29 06:29:54;;;;;;;15.07;3.70;;;;;;;;;;5034933;28;20212;-84
2023/05/29 06:32:21;;;;;;;13.77;3.80;;;;;;;;;;5018104;28;20184;-84
2023/05/29 06:34:47;;;;;;;16.03;3.67;;;;;;;;;;5034438;28;20169;-84
2023/05/29 06:37:14;;;;;;;14.83;3.50;;;;;;;;;;5035920;28;20180;-85
2023/05/29 06:39:41;;;;;;;16.27;3.70;;;;;;;;;;5031054;28;20239;-84
2023/05/29 06:42:08;;;;;;;15.97;3.80;;;;;;;;;;5031250;28;20272;-84
2023/05/29 06:44:34;;;;;;;12.70;3.37;;;;;;;;;;5034037;28;20183;-84
2023/05/29 06:47:00;;;;;;;11.40;3.20;;;;;;;;;;5017787;28;20185;-84
2023/05/29 06:49:26;;;;;;;13.97;3.83;;;;;;;;;;5017325;28;20215;-84
2023/05/29 06:51:52;;;;;;;17.37;3.43;;;;;;;;;;5033889;28;20180;-82
2023/05/29 06:54:19;;;;;;;15.13;3.63;;;;;;;;;;5034765;28;20202;-82
2023/05/29 06:56:45;;;;;;;11.67;3.33;;;;;;;;;;5033042;28;20180;-82
2023/05/29 06:59:11;;;;;;;16.10;4.30;;;;;;;;;;5033678;28;20216;-82
2023/05/29 07:01:37;;;;;;;15.77;3.80;;;;;;;;;;5033626;28;20188;-82
2023/05/29 07:04:03;;;;;;;12.03;3.40;;;;;;;;;;5034127;28;20185;-82
2023/05/29 07:06:29;;;;;;;14.27;3.80;;;;;;;;;;5034013;28;20219;-82
2023/05/29 07:08:55;;;;;;;13.60;3.60;;;;;;;;;;5034303;28;20327;-90
2023/05/29 07:11:21;;;;;;;14.93;3.83;;;;;;;;;;5026533;28;20184;-88
2023/05/29 07:13:47;;;;;;;21.07;3.77;;;;;;;;;;5030327;28;20188;-89
2023/05/29 07:16:13;;;;;;;13.00;3.33;;;;;;;;;;5054852;28;20243;-90
2023/05/29 07:18:39;;;;;;;16.37;3.23;;;;;;;;;;5034080;28;20280;-89
2023/05/29 07:21:05;;;;;;;15.43;3.80;;;;;;;;;;5018281;28;20276;-88
2023/05/29 07:23:32;;;;;;;12.83;3.50;;;;;;;;;;5034504;28;20188;-89
2023/05/29 07:25:58;;;;;;;11.90;3.10;;;;;;;;;;5034656;28;20172;-85
2023/05/29 07:28:24;;;;;;;11.00;3.30;;;;;;;;;;5033686;28;20263;-85
2023/05/29 07:30:50;;;;;;;13.40;3.20;;;;;;;;;;5016624;28;20295;-84
2023/05/29 07:33:16;;;;;;;13.83;3.70;;;;;;;;;;5013505;28;20185;-85
2023/05/29 07:35:42;;;;;;;13.57;3.73;;;;;;;;;;5032944;28;20181;-85
2023/05/29 07:38:08;;;;;;;15.03;3.47;;;;;;;;;;5017897;28;20379;-85
2023/05/29 07:40:34;;;;;;;10.00;3.10;;;;;;;;;;5033203;28;20204;-85
2023/05/29 07:43:00;;;;;;;17.43;4.13;;;;;;;;;;5033718;28;20192;-81
2023/05/29 07:45:27;;;;;;;14.03;3.33;;;;;;;;;;5029443;28;20189;-81
2023/05/29 07:47:53;;;;;;;13.37;3.63;;;;;;;;;;5030092;28;20193;-81
2023/05/29 07:50:19;;;;;;;13.23;3.10;;;;;;;;;;5012346;28;20216;-81
2023/05/29 07:52:45;;;;;;;12.73;3.40;;;;;;;;;;5033333;28;20243;-81
2023/05/29 07:55:12;;;;;;;12.43;3.30;;;;;;;;;;5018368;28;20283;-81
2023/05/29 07:57:39;;;;;;;11.77;3.37;;;;;;;;;;5027127;28;20182;-81
2023/05/29 08:00:05;;;;;;;13.10;3.70;;;;;;;;;;5024549;28;20233;-88
2023/05/29 08:02:31;;;;;;;12.67;3.57;;;;;;;;;;4997386;28;20212;-85
2023/05/29 08:04:57;;;;;;;12.87;3.40;;;;;;;;;;4997617;28;20185;-85
2023/05/29 08:07:24;;;;;;;16.53;3.60;;;;;;;;;;5006498;28;20192;-85
2023/05/29 08:09:50;;;;;;;11.47;3.10;;;;;;;;;;5032738;28;20209;-85
2023/05/29 08:12:16;;;;;;;8.13;3.07;;;;;;;;;;5033427;28;20179;-85
2023/05/29 08:14:42;;;;;;;10.17;3.10;;;;;;;;;;5016865;28;20176;-88
2023/05/29 08:17:08;;;;;;;9.50;3.47;;;;;;;;;;5033313;28;20268;-89
2023/05/29 08:19:35;;;;;;;9.70;3.17;;;;;;;;;;5033533;28;20212;-89
2023/05/29 08:22:00;;;;;;;14.47;3.97;;;;;;;;;;5017943;28;20188;-89
2023/05/29 08:24:27;;;;;;;13.60;3.30;;;;;;;;;;5034417;28;20181;-90
2023/05/29 08:26:56;;;;;;;12.23;3.27;;;;;;;;;;5034226;28;20180;-90
2023/05/29 08:29:22;;;;;;;12.70;3.40;;;;;;;;;;5017552;28;20254;-88
2023/05/29 08:31:48;;;;;;;12.23;3.43;;;;;;;;;;5018011;28;20189;-88
2023/05/29 08:34:15;;;;;;;10.37;3.20;;;;;;;;;;5034311;28;20267;-91
2023/05/29 08:36:41;;;;;;;11.90;3.70;;;;;;;;;;5017931;28;20172;-89
2023/05/29 08:39:07;;;;;;;9.63;3.13;;;;;;;;;;5017431;28;20192;-89
2023/05/29 08:41:38;;;;;;;11.53;3.60;;;;;;;;;;5033928;28;20184;-90
2023/05/29 08:44:05;;;;;;;9.80;3.20;;;;;;;;;;5033522;28;20184;-89
2023/05/29 08:46:32;;;;;;;12.50;3.60;;;;;;;;;;5033330;28;20176;-89
2023/05/29 08:48:59;;;;;;;8.17;3.17;;;;;;;;;;5016797;28;20275;-85
2023/05/29 08:51:31;;;;;;;12.53;3.53;;;;;;;;;;5032631;28;20181;-85
2023/05/29 08:54:00;;;;;;;9.23;3.00;;;;;;;;;;5032559;28;20192;-86
2023/05/29 08:56:27;;;;;;;9.30;3.10;;;;;;;;;;5032627;28;20247;-86
2023/05/29 08:58:54;;;;;;;9.33;3.00;;;;;;;;;;5032278;28;20169;-85
2023/05/29 09:01:21;;;;;;;8.73;3.20;;;;;;;;;;5033176;28;20169;-86
2023/05/29 09:03:47;;;;;;;10.33;2.93;;;;;;;;;;5034075;28;20165;-85
2023/05/29 09:06:14;;;;;;;11.43;3.33;;;;;;;;;;5016592;28;20181;-81
2023/05/29 09:08:40;;;;;;;8.73;3.10;;;;;;;;;;5016242;28;20188;-81
2023/05/29 09:11:06;;;;;;;11.53;3.43;;;;;;;;;;5032716;28;20188;-80
2023/05/29 09:13:32;;;;;;;9.50;3.00;;;;;;;;;;5032497;28;20181;-81
2023/05/29 09:15:59;;;;;;;7.13;2.77;;;;;;;;;;5022994;28;20246;-81
2023/05/29 09:18:29;;;;;;;9.23;3.07;;;;;;;;;;5012956;28;20188;-81
2023/05/29 09:20:54;;;;;;;11.47;3.27;;;;;;;;;;5016425;28;20184;-81
2023/05/29 09:23:21;;;;;;;10.93;3.13;;;;;;;;;;5000288;28;20249;-85
2023/05/29 09:25:52;;;;;;;9.40;3.20;;;;;;;;;;5016405;28;20188;-86
2023/05/29 09:28:18;;;;;;;8.23;2.93;;;;;;;;;;5017243;28;20174;-86
2023/05/29 09:30:46;;;;;;;13.53;3.43;;;;;;;;;;4999943;28;20217;-86
2023/05/29 09:33:14;;;;;;;9.93;3.40;;;;;;;;;;5016481;28;20264;-86
2023/05/29 09:35:44;;;;;;;9.03;3.37;;;;;;;;;;5016127;28;20232;-85
2023/05/29 09:38:11;;;;;;;11.03;3.40;;;;;;;;;;5016254;28;20174;-86
2023/05/29 09:40:38;;;;;;;9.60;3.57;;;;;;;;;;5015853;28;20185;-86
2023/05/29 09:43:04;;;;;;;11.13;3.40;;;;;;;;;;5016364;28;20224;-86
2023/05/29 09:45:30;;;;;;;7.90;2.63;;;;;;;;;;5015851;28;20181;-86
2023/05/29 09:47:57;;;;;;;10.73;3.40;;;;;;;;;;5015782;28;20182;-86
2023/05/29 09:50:26;;;;;;;8.40;3.30;;;;;;;;;;5015946;28;20220;-86
2023/05/29 09:52:53;;;;;;;8.57;3.10;;;;;;;;;;5015649;28;20169;-86
2023/05/29 09:55:23;;;;;;;10.93;3.33;;;;;;;;;;5015712;28;20174;-89
2023/05/29 09:57:49;;;;;;;10.70;3.17;;;;;;;;;;5017213;28;20173;-90
2023/05/29 10:00:17;;;;;;;7.50;3.13;;;;;;;;;;5016156;28;20237;-88
2023/05/29 10:02:43;;;;;;;7.90;3.10;;;;;;;;;;5017027;28;20340;-91
2023/05/29 10:05:11;;;;;;;8.70;3.37;;;;;;;;;;5001162;28;20193;-89
2023/05/29 10:07:38;;;;;;;8.20;3.03;;;;;;;;;;5017443;28;20185;-90
2023/05/29 10:10:05;;;;;;;8.53;3.00;;;;;;;;;;5016933;28;20224;-89
2023/05/29 10:12:41;;;;;;;11.17;3.27;;;;;;;;;;5000394;28;20180;-90
2023/05/29 10:15:10;;;;;;;8.70;3.10;;;;;;;;;;5000454;28;20200;-89
2023/05/29 10:17:38;;;;;;;10.27;3.20;;;;;;;;;;5016746;28;20180;-89
2023/05/29 10:20:06;;;;;;;7.83;2.87;;;;;;;;;;5004744;28;20190;-90
2023/05/29 10:22:33;;;;;;;8.77;3.23;;;;;;;;;;5016465;28;20184;-90
2023/05/29 10:25:00;;;;;;;10.93;3.17;;;;;;;;;;5016140;28;20276;-89
2023/05/29 10:27:26;;;;;;;7.13;2.90;;;;;;;;;;5016643;28;20272;-91
2023/05/29 10:30:11;;;;;;;8.87;3.40;;;;;;;;;;5015202;28;20216;-82
2023/05/29 10:32:43;;;;;;;7.47;3.40;;;;;;;;;;5015054;28;20239;-81
2023/05/29 10:35:31;;;;;;;12.37;3.53;;;;;;;;;;5016074;28;20170;-82
2023/05/29 10:38:01;;;;;;;11.20;3.23;;;;;;;;;;5014819;28;20177;-82
2023/05/29 10:40:27;;;;;;;7.63;3.17;;;;;;;;;;5015056;28;20177;-82
2023/05/29 10:42:58;;;;;;;7.30;3.20;;;;;;;;;;5015090;28;20208;-82
2023/05/29 10:45:31;;;;;;;11.67;3.27;;;;;;;;;;5016900;28;20185;-90
2023/05/29 10:48:17;;;;;;;6.57;2.90;;;;;;;;;;5025298;28;20187;-89
2023/05/29 10:50:44;;;;;;;6.50;3.10;;;;;;;;;;5037160;28;20258;-89
2023/05/29 10:53:11;;;;;;;9.07;3.13;;;;;;;;;;5032232;28;20191;-90
2023/05/29 10:55:37;;;;;;;8.93;3.10;;;;;;;;;;5016056;28;20177;-90
2023/05/29 10:58:07;;;;;;;11.90;3.80;;;;;;;;;;5015931;28;20185;-89
2023/05/29 11:00:33;;;;;;;10.90;3.03;;;;;;;;;;5015435;28;20296;-90
2023/05/29 11:03:03;;;;;;;9.67;3.60;;;;;;;;;;5014724;28;20188;-82
2023/05/29 11:05:29;;;;;;;10.93;3.50;;;;;;;;;;5014658;28;20189;-82
2023/05/29 11:08:00;;;;;;;13.75;3.78;;;;;;;;;;5014706;28;20188;-82
2023/05/29 11:10:42;;;;;;;10.43;3.20;;;;;;;;;;5014516;28;20216;-82
2023/05/29 11:13:09;;;;;;;9.60;3.80;;;;;;;;;;5029876;22;20177;-80
2023/05/29 11:15:35;;;;;;;11.60;3.60;;;;;;;;;;5017126;28;20196;-80
2023/05/29 11:18:07;;;;;;;12.23;3.43;;;;;;;;;;5017493;28;20191;-81
2023/05/29 11:20:33;;;;;;;10.70;3.55;;;;;;;;;;5033744;28;20188;-80
2023/05/29 11:22:59;;;;;;;11.60;3.90;;;;;;;;;;5015511;28;20204;-81
2023/05/29 11:25:26;;;;;;;10.13;3.60;;;;;;;;;;5013785;28;20192;-83
2023/05/29 11:27:52;;;;;;;8.80;3.47;;;;;;;;;;4997202;28;20184;-83
2023/05/29 11:30:19;;;;;;;12.93;3.67;;;;;;;;;;5013461;28;20213;-83
2023/05/29 11:32:46;;;;;;;9.43;3.63;;;;;;;;;;4997439;28;20188;-83
2023/05/29 11:35:13;;;;;;;10.85;3.63;;;;;;;;;;4997339;28;20181;-87
2023/05/29 11:37:43;;;;;;;11.68;3.55;;;;;;;;;;5013525;28;20181;-86
2023/05/29 11:40:09;;;;;;;12.35;3.97;;;;;;;;;;5013557;28;20185;-86
2023/05/29 11:42:36;;;;;;;10.45;3.67;;;;;;;;;;5013008;28;20177;-86
2023/05/29 11:45:15;;;;;;;13.77;3.75;;;;;;;;;;5013777;28;20188;-86
2023/05/29 11:47:57;;;;;;;8.65;3.60;;;;;;;;;;5014323;28;20165;-86
2023/05/29 11:50:24;;;;;;;11.73;3.40;;;;;;;;;;5013094;28;20255;-87
2023/05/29 11:52:53;;;;;;;7.28;3.28;;;;;;;;;;5013562;28;20173;-82
2023/05/29 11:55:20;;;;;;;10.50;3.30;;;;;;;;;;5013613;28;20184;-82
2023/05/29 11:57:47;;;;;;;12.15;3.35;;;;;;;;;;4997370;28;20178;-82
2023/05/29 12:00:13;;;;;;;11.07;3.92;;;;;;;;;;5014681;28;20189;-82
2023/05/29 12:02:41;;;;;;;11.40;3.30;;;;;;;;;;5002907;28;20192;-82
2023/05/29 12:05:07;;;;;;;11.60;4.07;;;;;;;;;;5020344;28;20235;-82
2023/05/29 12:07:34;;;;;;;11.75;3.67;;;;;;;;;;5028919;28;20235;-82
2023/05/29 12:10:12;;;;;;;14.57;4.05;;;;;;;;;;5032649;28;20299;-86
2023/05/29 12:12:39;;;;;;;9.48;3.88;;;;;;;;;;5033377;28;20265;-86
2023/05/29 12:15:06;;;;;;;10.05;3.65;;;;;;;;;;5031202;28;20453;-86
2023/05/29 12:17:33;;;;;;;11.45;3.67;;;;;;;;;;5016396;28;20196;-86
2023/05/29 12:19:59;;;;;;;11.25;4.10;;;;;;;;;;5031250;28;20188;-86
2023/05/29 12:22:35;;;;;;;11.30;4.18;;;;;;;;;;5027585;28;20291;-86
2023/05/29 12:25:17;;;;;;;9.77;3.63;;;;;;;;;;5013322;28;20192;-84
2023/05/29 12:27:46;;;;;;;14.98;4.10;;;;;;;;;;5015730;28;20190;-84
2023/05/29 12:30:15;;;;;;;10.48;3.47;;;;;;;;;;5032176;28;20299;-83
2023/05/29 12:32:42;;;;;;;10.02;3.92;;;;;;;;;;5028591;28;20192;-84
2023/05/29 12:35:15;;;;;;;10.60;3.90;;;;;;;;;;5015902;28;20176;-83
2023/05/29 12:37:45;;;;;;;14.80;3.92;;;;;;;;;;5028014;28;20263;-83
2023/05/29 12:40:21;;;;;;;12.75;3.95;;;;;;;;;;5030862;28;20185;-83
2023/05/29 12:42:48;;;;;;;13.30;4.30;;;;;;;;;;5030824;28;20421;-86
2023/05/29 12:45:14;;;;;;;9.10;3.65;;;;;;;;;;5008229;28;20510;-86
2023/05/29 12:47:47;;;;;;;10.43;3.47;;;;;;;;;;5033485;28;20184;-86
2023/05/29 12:50:23;;;;;;;9.98;4.00;;;;;;;;;;5032504;28;20204;-86
2023/05/29 12:53:02;;;;;;;10.65;3.60;;;;;;;;;;5032200;28;20199;-87
2023/05/29 12:55:28;;;;;;;11.20;4.10;;;;;;;;;;5036483;28;20256;-87
2023/05/29 12:57:55;;;;;;;9.23;3.55;;;;;;;;;;5026874;28;20257;-86
2023/05/29 13:00:22;;;;;;;9.85;3.70;;;;;;;;;;5034790;28;20263;-83
2023/05/29 13:02:48;;;;;;;10.80;3.95;;;;;;;;;;5037096;28;20192;-83
2023/05/29 13:05:16;;;;;;;12.75;4.00;;;;;;;;;;5036348;28;20196;-83
2023/05/29 13:07:45;;;;;;;13.23;4.13;;;;;;;;;;5037615;28;20172;-83
2023/05/29 13:10:11;;;;;;;14.15;3.85;;;;;;;;;;5022893;28;20285;-83
2023/05/29 13:12:37;;;;;;;10.10;3.70;;;;;;;;;;5019420;28;20173;-83
2023/05/29 13:15:03;;;;;;;11.23;3.70;;;;;;;;;;5019490;28;20320;-83
2023/05/29 13:17:29;;;;;;;10.15;3.80;;;;;;;;;;5036318;28;20177;-83
2023/05/29 13:19:55;;;;;;;8.57;3.55;;;;;;;;;;5035923;28;20184;-83
2023/05/29 13:22:21;;;;;;;9.43;3.55;;;;;;;;;;5031780;28;20224;-83
2023/05/29 13:24:47;;;;;;;14.00;4.35;;;;;;;;;;5026421;28;20185;-83
2023/05/29 13:27:15;;;;;;;10.40;3.90;;;;;;;;;;5028766;28;20193;-83
2023/05/29 13:29:41;;;;;;;11.52;3.60;;;;;;;;;;5026876;28;20213;-83
2023/05/29 13:32:08;;;;;;;12.30;3.90;;;;;;;;;;5029569;28;20173;-83
2023/05/29 13:34:34;;;;;;;10.35;3.38;;;;;;;;;;5031458;28;20231;-83
2023/05/29 13:37:01;;;;;;;14.32;3.95;;;;;;;;;;5019158;28;20219;-83
2023/05/29 13:39:28;;;;;;;12.00;3.88;;;;;;;;;;5035536;28;20180;-83
2023/05/29 13:41:54;;;;;;;11.32;3.63;;;;;;;;;;5033754;28;20184;-83
2023/05/29 13:44:20;;;;;;;9.65;3.83;;;;;;;;;;5013697;28;20193;-83
2023/05/29 13:46:46;;;;;;;12.20;3.85;;;;;;;;;;5033613;28;20189;-83
2023/05/29 13:49:12;;;;;;;13.35;3.85;;;;;;;;;;5018604;28;20250;-82
2023/05/29 13:51:38;;;;;;;11.15;3.50;;;;;;;;;;5017117;28;20185;-82
2023/05/29 13:54:04;;;;;;;12.95;3.78;;;;;;;;;;5015092;28;20185;-82
2023/05/29 13:56:30;;;;;;;11.68;3.72;;;;;;;;;;5030471;28;20191;-82
2023/05/29 13:59:04;;;;;;;14.27;3.42;;;;;;;;;;5024432;28;20180;-82
2023/05/29 14:01:30;;;;;;;10.68;3.75;;;;;;;;;;5034090;28;20242;-82
2023/05/29 14:03:56;;;;;;;10.80;3.70;;;;;;;;;;5035046;28;20239;-82
2023/05/29 14:06:22;;;;;;;9.70;3.28;;;;;;;;;;5033725;28;20193;-83
2023/05/29 14:08:48;;;;;;;8.48;3.50;;;;;;;;;;5026023;28;20260;-83
2023/05/29 14:11:14;;;;;;;8.88;3.50;;;;;;;;;;5017323;28;20254;-84
2023/05/29 14:13:40;;;;;;;9.63;3.40;;;;;;;;;;5030614;28;20225;-83
2023/05/29 14:16:06;;;;;;;9.63;3.60;;;;;;;;;;5031347;28;20184;-84
2023/05/29 14:18:32;;;;;;;13.18;3.50;;;;;;;;;;5008235;28;20184;-84
2023/05/29 14:20:58;;;;;;;12.80;3.15;;;;;;;;;;5033598;28;20184;-83
2023/05/29 14:23:24;;;;;;;11.80;4.03;;;;;;;;;;5004889;28;20189;-87
2023/05/29 14:25:53;;;;;;;10.43;3.40;;;;;;;;;;5017795;28;20219;-87
2023/05/29 14:28:19;;;;;;;11.35;3.58;;;;;;;;;;5018851;28;20207;-87
2023/05/29 14:30:45;;;;;;;9.05;3.20;;;;;;;;;;5018492;28;20209;-86